Celebrity Infinity — 9HJD9 — position and weather

sailwx.info

Track history (hours):
 
Tides and Currents Weather Stations Pressure Air Temp Water Temp Dewpoint Dewpoint Depression Visibility Wind Speed Wind Dir Waves Ship Positions

Celebrity Infinity

Last reported at 2016-May-26 10:09 UTC. Time now 2016-May-27 14:14 UTC.
Position N 58°09' W 135°11'.

Length 294 m; draft 8.3 m.

Type: Ship. MMSI: 249048000.

Date/timePositionNaut miles runAvg speedWind from/ knotsBaromVisibWave heightAir tempDewpointWater temp
2016-May-26 10:09N 58°09' W 135°11'914.8
2016-May-26 09:33N 58°12' W 135°26'1514.6
2016-May-26 08:33N 58°19' W 135°51'5 0.2
2016-May-25 07:33N 58°20' W 136°01'1615.8
2016-May-25 06:33N 58°14' W 135°33'50512.6
2016-May-23 14:33N 51°01' W 128°06'1615.6
2016-May-23 13:34N 50°56' W 127°43'2019.8
2016-May-23 12:34N 50°47' W 127°15'2019.3
2016-May-23 11:32N 50°38' W 126°47'5416.6
2016-May-23 08:17N 50°20' W 125°27'1216.6
2016-May-23 07:34N 50°09' W 125°21'1514.7
2016-May-23 06:33N 49°57' W 125°08'1514.6
2016-May-23 05:33N 49°47' W 124°52'1514.6
2016-May-23 04:33N 49°36' W 124°36'1414.3
2016-May-23 03:33N 49°26' W 124°20'1414.5
2016-May-23 02:34N 49°23' W 123°58'1514.6
2016-May-23 01:33N 49°20' W 123°36'1514.9
2016-May-23 00:33N 49°19' W 123°13'5 4.5
2016-May-22 23:29N 49°17' W 123°07'0 0.0
2016-May-22 22:31N 49°17' W 123°07'0 0.0
2016-May-22 21:31N 49°17' W 123°07'0 0.0
2016-May-22 20:33N 49°17' W 123°07'0 0.0
2016-May-22 19:33N 49°17' W 123°07'0 0.0
2016-May-22 18:33N 49°17' W 123°07'0 0.0
2016-May-22 17:32N 49°17' W 123°07'0 0.0
2016-May-22 16:32N 49°17' W 123°07'0 0.0
2016-May-22 15:31N 49°17' W 123°07'0 0.0
2016-May-22 14:31N 49°17' W 123°07'0 0.0
2016-May-22 13:34N 49°17' W 123°07'6 5.7
2016-May-22 12:33N 49°18' W 123°15'7 6.8
2016-May-22 11:33N 49°12' W 123°19'7 6.7
2016-May-22 10:33N 49°05' W 123°21'6 6.2
2016-May-22 09:33N 49°00' W 123°15'7 7.0
2016-May-22 08:33N 48°56' W 123°07'7 6.8
2016-May-22 07:33N 48°51' W 123°00'6 5.7
2016-May-22 06:33N 48°45' W 123°04'7 6.6
2016-May-22 05:33N 48°42' W 123°13'6 6.0
2016-May-22 04:33N 48°36' W 123°14'8 7.5
2016-May-22 03:33N 48°29' W 123°11'5 5.4
2016-May-22 02:33N 48°24' W 123°12'6 6.4
2016-May-22 01:33N 48°22' W 123°22'3 2.2
2016-May-22 00:20N 48°25' W 123°23'0 0.0
2016-May-21 23:29N 48°25' W 123°23'0 0.0
2016-May-21 22:31N 48°25' W 123°23'0 0.0
2016-May-21 21:31N 48°25' W 123°23'0 0.0
2016-May-21 20:33N 48°25' W 123°23'0 0.0
2016-May-21 19:33N 48°25' W 123°23'0 0.0
2016-May-21 18:32N 48°25' W 123°23'0 0.0
2016-May-21 17:32N 48°25' W 123°23'0 0.0
2016-May-21 16:31N 48°25' W 123°23'0 0.0
2016-May-21 15:28N 48°25' W 123°23'0 0.0
2016-May-21 14:31N 48°25' W 123°23'2 2.1
2016-May-21 13:33N 48°23' W 123°22'9 8.9
2016-May-21 12:33N 48°29' W 123°13'1111.1
2016-May-21 11:33N 48°40' W 123°15'9 9.1
2016-May-21 10:33N 48°46' W 123°04'8 7.9
2016-May-21 09:34N 48°53' W 123°07'10 9.7
2016-May-21 08:33N 48°60' W 123°18'10 9.5
2016-May-21 07:33N 49°07' W 123°27'7 6.9
2016-May-21 06:33N 49°13' W 123°31'7 7.3
2016-May-21 05:33N 49°17' W 123°41'7 7.4
2016-May-21 04:33N 49°20' W 123°51'6 6.2
2016-May-21 03:33N 49°23' W 123°60'4 3.9
2016-May-21 02:33N 49°20' W 123°56'3 2.9
2016-May-21 01:33N 49°21' W 124°00'9 9.4
2016-May-21 00:33N 49°13' W 123°54'3 0.6
2016-May-20 20:07N 49°10' W 123°55'0 0.0
2016-May-20 19:31N 49°10' W 123°55'0 0.0
2016-May-20 18:30N 49°10' W 123°55'0 0.0
2016-May-20 17:18N 49°10' W 123°55'0 0.0
2016-May-20 16:32N 49°10' W 123°55'0 0.0
2016-May-20 15:32N 49°10' W 123°55'0 0.0
2016-May-20 14:31N 49°10' W 123°55'0 0.0
2016-May-20 13:33N 49°10' W 123°55'6 6.4
2016-May-20 12:33N 49°15' W 123°49'1414.1
2016-May-20 11:34N 49°10' W 123°29'1615.6
2016-May-20 10:33N 48°59' W 123°12'1414.1
2016-May-20 09:34N 48°47' W 123°01'1313.3
2016-May-20 08:34N 48°36' W 123°13'1615.5
2016-May-20 07:34N 48°23' W 123°01'1615.8
2016-May-20 06:33N 48°11' W 122°46'1615.8
2016-May-20 05:34N 47°58' W 122°34'1716.6
2016-May-20 04:34N 47°42' W 122°27'6 6.3
2016-May-20 03:33N 47°37' W 122°21'0 0.0
2016-May-20 02:33N 47°37' W 122°21'0 0.0
2016-May-20 01:31N 47°37' W 122°21'0 0.0
2016-May-20 00:31N 47°37' W 122°21'0 0.0
2016-May-19 23:31N 47°37' W 122°21'0 0.0
2016-May-19 22:33N 47°37' W 122°21'0 0.0
2016-May-19 21:34N 47°37' W 122°21'0 0.0
2016-May-19 20:32N 47°37' W 122°21'0 0.0
2016-May-19 19:33N 47°37' W 122°21'0 0.0
2016-May-19 18:32N 47°37' W 122°21'0 0.0
2016-May-19 17:31N 47°37' W 122°21'0 0.0
2016-May-19 16:31N 47°37' W 122°21'0 0.0
2016-May-19 15:33N 47°37' W 122°21'0 0.0
2016-May-19 14:34N 47°37' W 122°21'0 0.0
2016-May-19 13:33N 47°37' W 122°21'7 7.2
2016-May-19 12:34N 47°42' W 122°28'1514.7
2016-May-19 11:34N 47°57' W 122°33'1514.4
2016-May-19 10:30N 48°09' W 122°45'1415.1
2016-May-19 09:34N 48°12' W 123°06'1413.7
2016-May-19 08:33N 48°11' W 123°27'8 8.2
2016-May-19 07:33N 48°13' W 123°38'8 7.7
2016-May-19 06:32N 48°13' W 123°50'40 7.7
2016-May-19 01:21N 48°28' W 124°46'7 7.8
2016-May-19 00:30N 48°29' W 124°56'7 7.9
2016-May-18 23:34N 48°28' W 125°07'8 7.8
2016-May-18 22:34N 48°25' W 125°18'8 7.8
2016-May-18 21:33N 48°21' W 125°28'8 8.0
2016-May-18 20:34N 48°18' W 125°39'7 6.5
2016-May-18 19:32N 48°12' W 125°43'8 7.7
2016-May-18 18:33N 48°04' W 125°39'5 8.7
2016-May-18 18:00N 48°00' W 125°36'42 7.7 300 / 221016.0 5.4 1.513.0 13.0
2016-May-18 12:34N 47°21' W 125°16'7 7.1
2016-May-18 11:33N 47°14' W 125°13'7 7.2
2016-May-18 10:33N 47°07' W 125°10'7 7.1
2016-May-18 09:33N 47°00' W 125°06'7 7.0
2016-May-18 08:33N 46°54' W 125°00'7 6.9
2016-May-18 07:33N 46°49' W 124°54'7 7.0
2016-May-18 06:34N 46°42' W 124°51'7 7.2
2016-May-18 05:33N 46°36' W 124°47'7 7.1
2016-May-18 04:33N 46°33' W 124°37'7 7.0
2016-May-18 03:34N 46°28' W 124°31'7 6.9
2016-May-18 02:34N 46°22' W 124°25'7 7.0
2016-May-18 01:33N 46°16' W 124°19'7 6.6
2016-May-18 00:34N 46°12' W 124°11'1010.3
2016-May-17 23:34N 46°12' W 123°57'4 3.6
2016-May-17 22:31N 46°11' W 123°51'0 0.0
2016-May-17 21:31N 46°11' W 123°51'0 0.0
2016-May-17 20:33N 46°11' W 123°51'0 0.0
2016-May-17 19:33N 46°11' W 123°51'0 0.0
2016-May-17 18:32N 46°11' W 123°51'0 0.0
2016-May-17 17:32N 46°11' W 123°51'0 0.0
2016-May-17 16:32N 46°11' W 123°51'0 0.0
2016-May-17 15:31N 46°11' W 123°51'0 0.1
2016-May-17 14:33N 46°11' W 123°52'9 8.7
2016-May-17 13:33N 46°15' W 124°03'1111.1
2016-May-17 12:34N 46°06' W 124°12'1514.9
2016-May-17 11:34N 45°52' W 124°15'1414.5
2016-May-17 10:33N 45°37' W 124°18'1414.5
2016-May-17 09:34N 45°23' W 124°22'1514.7
2016-May-17 08:33N 45°08' W 124°25'1514.8
2016-May-17 07:34N 44°54' W 124°28'1514.6
2016-May-17 06:33N 44°40' W 124°32'1514.5
2016-May-17 05:34N 44°25' W 124°35'1514.6
2016-May-17 04:33N 44°11' W 124°38'1514.5
2016-May-17 03:33N 43°56' W 124°41'1514.8
2016-May-17 02:34N 43°42' W 124°45'1614.9
2016-May-17 01:31N 43°26' W 124°47'  
Track history (hours):
 
Tides and Currents Weather Stations Pressure Air Temp Water Temp Dewpoint Dewpoint Depression Visibility Wind Speed Wind Dir Waves Ship Positions

Celebrity Infinity

Last reported at 2016-May-26 10:09 UTC. Time now 2016-May-27 14:14 UTC.
Position N 58°09' W 135°11'.

Length 294 m; draft 8.3 m.

Type: Ship. MMSI: 249048000.

Date/timePositionNaut miles runAvg speedWind from/ knotsBaromVisibWave heightAir tempDewpointWater temp
2016-May-26 10:09N 58°09' W 135°11'914.8
2016-May-26 09:33N 58°12' W 135°26'1514.6
2016-May-26 08:33N 58°19' W 135°51'5 0.2
2016-May-25 07:33N 58°20' W 136°01'1615.8
2016-May-25 06:33N 58°14' W 135°33'50512.6
2016-May-23 14:33N 51°01' W 128°06'1615.6
2016-May-23 13:34N 50°56' W 127°43'2019.8
2016-May-23 12:34N 50°47' W 127°15'2019.3
2016-May-23 11:32N 50°38' W 126°47'5416.6
2016-May-23 08:17N 50°20' W 125°27'1216.6
2016-May-23 07:34N 50°09' W 125°21'1514.7
2016-May-23 06:33N 49°57' W 125°08'1514.6
2016-May-23 05:33N 49°47' W 124°52'1514.6
2016-May-23 04:33N 49°36' W 124°36'1414.3
2016-May-23 03:33N 49°26' W 124°20'1414.5
2016-May-23 02:34N 49°23' W 123°58'1514.6
2016-May-23 01:33N 49°20' W 123°36'1514.9
2016-May-23 00:33N 49°19' W 123°13'5 4.5
2016-May-22 23:29N 49°17' W 123°07'0 0.0
2016-May-22 22:31N 49°17' W 123°07'0 0.0
2016-May-22 21:31N 49°17' W 123°07'0 0.0
2016-May-22 20:33N 49°17' W 123°07'0 0.0
2016-May-22 19:33N 49°17' W 123°07'0 0.0
2016-May-22 18:33N 49°17' W 123°07'0 0.0
2016-May-22 17:32N 49°17' W 123°07'0 0.0
2016-May-22 16:32N 49°17' W 123°07'0 0.0
2016-May-22 15:31N 49°17' W 123°07'0 0.0
2016-May-22 14:31N 49°17' W 123°07'0 0.0
2016-May-22 13:34N 49°17' W 123°07'6 5.7
2016-May-22 12:33N 49°18' W 123°15'7 6.8
2016-May-22 11:33N 49°12' W 123°19'7 6.7
2016-May-22 10:33N 49°05' W 123°21'6 6.2
2016-May-22 09:33N 49°00' W 123°15'7 7.0
2016-May-22 08:33N 48°56' W 123°07'7 6.8
2016-May-22 07:33N 48°51' W 123°00'6 5.7
2016-May-22 06:33N 48°45' W 123°04'7 6.6
2016-May-22 05:33N 48°42' W 123°13'6 6.0
2016-May-22 04:33N 48°36' W 123°14'8 7.5
2016-May-22 03:33N 48°29' W 123°11'5 5.4
2016-May-22 02:33N 48°24' W 123°12'6 6.4
2016-May-22 01:33N 48°22' W 123°22'3 2.2
2016-May-22 00:20N 48°25' W 123°23'0 0.0
2016-May-21 23:29N 48°25' W 123°23'0 0.0
2016-May-21 22:31N 48°25' W 123°23'0 0.0
2016-May-21 21:31N 48°25' W 123°23'0 0.0
2016-May-21 20:33N 48°25' W 123°23'0 0.0
2016-May-21 19:33N 48°25' W 123°23'0 0.0
2016-May-21 18:32N 48°25' W 123°23'0 0.0
2016-May-21 17:32N 48°25' W 123°23'0 0.0
2016-May-21 16:31N 48°25' W 123°23'0 0.0
2016-May-21 15:28N 48°25' W 123°23'0 0.0
2016-May-21 14:31N 48°25' W 123°23'2 2.1
2016-May-21 13:33N 48°23' W 123°22'9 8.9
2016-May-21 12:33N 48°29' W 123°13'1111.1
2016-May-21 11:33N 48°40' W 123°15'9 9.1
2016-May-21 10:33N 48°46' W 123°04'8 7.9
2016-May-21 09:34N 48°53' W 123°07'10 9.7
2016-May-21 08:33N 48°60' W 123°18'10 9.5
2016-May-21 07:33N 49°07' W 123°27'7 6.9
2016-May-21 06:33N 49°13' W 123°31'7 7.3
2016-May-21 05:33N 49°17' W 123°41'7 7.4
2016-May-21 04:33N 49°20' W 123°51'6 6.2
2016-May-21 03:33N 49°23' W 123°60'4 3.9
2016-May-21 02:33N 49°20' W 123°56'3 2.9
2016-May-21 01:33N 49°21' W 124°00'9 9.4
2016-May-21 00:33N 49°13' W 123°54'3 0.6
2016-May-20 20:07N 49°10' W 123°55'0 0.0
2016-May-20 19:31N 49°10' W 123°55'0 0.0
2016-May-20 18:30N 49°10' W 123°55'0 0.0
2016-May-20 17:18N 49°10' W 123°55'0 0.0
2016-May-20 16:32N 49°10' W 123°55'0 0.0
2016-May-20 15:32N 49°10' W 123°55'0 0.0
2016-May-20 14:31N 49°10' W 123°55'0 0.0
2016-May-20 13:33N 49°10' W 123°55'6 6.4
2016-May-20 12:33N 49°15' W 123°49'1414.1
2016-May-20 11:34N 49°10' W 123°29'1615.6
2016-May-20 10:33N 48°59' W 123°12'1414.1
2016-May-20 09:34N 48°47' W 123°01'1313.3
2016-May-20 08:34N 48°36' W 123°13'1615.5
2016-May-20 07:34N 48°23' W 123°01'1615.8
2016-May-20 06:33N 48°11' W 122°46'1615.8
2016-May-20 05:34N 47°58' W 122°34'1716.6
2016-May-20 04:34N 47°42' W 122°27'6 6.3
2016-May-20 03:33N 47°37' W 122°21'0 0.0
2016-May-20 02:33N 47°37' W 122°21'0 0.0
2016-May-20 01:31N 47°37' W 122°21'0 0.0
2016-May-20 00:31N 47°37' W 122°21'0 0.0
2016-May-19 23:31N 47°37' W 122°21'0 0.0
2016-May-19 22:33N 47°37' W 122°21'0 0.0
2016-May-19 21:34N 47°37' W 122°21'0 0.0
2016-May-19 20:32N 47°37' W 122°21'0 0.0
2016-May-19 19:33N 47°37' W 122°21'0 0.0
2016-May-19 18:32N 47°37' W 122°21'0 0.0
2016-May-19 17:31N 47°37' W 122°21'0 0.0
2016-May-19 16:31N 47°37' W 122°21'0 0.0
2016-May-19 15:33N 47°37' W 122°21'0 0.0
2016-May-19 14:34N 47°37' W 122°21'0 0.0
2016-May-19 13:33N 47°37' W 122°21'7 7.2
2016-May-19 12:34N 47°42' W 122°28'1514.7
2016-May-19 11:34N 47°57' W 122°33'1514.4
2016-May-19 10:30N 48°09' W 122°45'1415.1
2016-May-19 09:34N 48°12' W 123°06'1413.7
2016-May-19 08:33N 48°11' W 123°27'8 8.2
2016-May-19 07:33N 48°13' W 123°38'8 7.7
2016-May-19 06:32N 48°13' W 123°50'40 7.7
2016-May-19 01:21N 48°28' W 124°46'7 7.8
2016-May-19 00:30N 48°29' W 124°56'7 7.9
2016-May-18 23:34N 48°28' W 125°07'8 7.8
2016-May-18 22:34N 48°25' W 125°18'8 7.8
2016-May-18 21:33N 48°21' W 125°28'8 8.0
2016-May-18 20:34N 48°18' W 125°39'7 6.5
2016-May-18 19:32N 48°12' W 125°43'8 7.7
2016-May-18 18:33N 48°04' W 125°39'5 8.7
2016-May-18 18:00N 48°00' W 125°36'42 7.7 300 / 221016.0 5.4 1.513.0 13.0
2016-May-18 12:34N 47°21' W 125°16'7 7.1
2016-May-18 11:33N 47°14' W 125°13'7 7.2
2016-May-18 10:33N 47°07' W 125°10'7 7.1
2016-May-18 09:33N 47°00' W 125°06'7 7.0
2016-May-18 08:33N 46°54' W 125°00'7 6.9
2016-May-18 07:33N 46°49' W 124°54'7 7.0
2016-May-18 06:34N 46°42' W 124°51'7 7.2
2016-May-18 05:33N 46°36' W 124°47'7 7.1
2016-May-18 04:33N 46°33' W 124°37'7 7.0
2016-May-18 03:34N 46°28' W 124°31'7 6.9
2016-May-18 02:34N 46°22' W 124°25'7 7.0
2016-May-18 01:33N 46°16' W 124°19'7 6.6
2016-May-18 00:34N 46°12' W 124°11'1010.3
2016-May-17 23:34N 46°12' W 123°57'4 3.6
2016-May-17 22:31N 46°11' W 123°51'0 0.0
2016-May-17 21:31N 46°11' W 123°51'0 0.0
2016-May-17 20:33N 46°11' W 123°51'0 0.0
2016-May-17 19:33N 46°11' W 123°51'0 0.0
2016-May-17 18:32N 46°11' W 123°51'0 0.0
2016-May-17 17:32N 46°11' W 123°51'0 0.0
2016-May-17 16:32N 46°11' W 123°51'0 0.0
2016-May-17 15:31N 46°11' W 123°51'0 0.1
2016-May-17 14:33N 46°11' W 123°52'9 8.7
2016-May-17 13:33N 46°15' W 124°03'1111.1
2016-May-17 12:34N 46°06' W 124°12'1514.9
2016-May-17 11:34N 45°52' W 124°15'1414.5
2016-May-17 10:33N 45°37' W 124°18'1414.5
2016-May-17 09:34N 45°23' W 124°22'1514.7
2016-May-17 08:33N 45°08' W 124°25'1514.8
2016-May-17 07:34N 44°54' W 124°28'1514.6
2016-May-17 06:33N 44°40' W 124°32'1514.5
2016-May-17 05:34N 44°25' W 124°35'1514.6
2016-May-17 04:33N 44°11' W 124°38'1514.5
2016-May-17 03:33N 43°56' W 124°41'1514.8
2016-May-17 02:34N 43°42' W 124°45'1614.9
2016-May-17 01:31N 43°26' W 124°47'  

Dump ship's entire track history